sensor_id;sensor_type;location;lat;lon;timestamp;P1;durP1;ratioP1;P2;durP2;ratioP2
7177;SDS011;3630;42.146;24.756;2023-02-28T00:00:39;18.97;;;9.83;;
7177;SDS011;3630;42.146;24.756;2023-02-28T00:03:06;14.20;;;9.80;;
7177;SDS011;3630;42.146;24.756;2023-02-28T00:05:33;19.87;;;10.47;;
7177;SDS011;3630;42.146;24.756;2023-02-28T00:08:00;13.77;;;9.93;;
7177;SDS011;3630;42.146;24.756;2023-02-28T00:10:28;13.77;;;9.43;;
7177;SDS011;3630;42.146;24.756;2023-02-28T00:12:59;14.83;;;9.50;;
7177;SDS011;3630;42.146;24.756;2023-02-28T00:15:30;18.83;;;11.85;;
7177;SDS011;3630;42.146;24.756;2023-02-28T00:17:57;13.30;;;10.13;;
7177;SDS011;3630;42.146;24.756;2023-02-28T00:20:24;13.47;;;9.87;;
7177;SDS011;3630;42.146;24.756;2023-02-28T00:22:52;17.27;;;10.33;;
7177;SDS011;3630;42.146;24.756;2023-02-28T00:25:21;16.50;;;10.17;;
7177;SDS011;3630;42.146;24.756;2023-02-28T00:27:51;13.37;;;9.23;;
7177;SDS011;3630;42.146;24.756;2023-02-28T00:30:19;14.37;;;10.47;;
7177;SDS011;3630;42.146;24.756;2023-02-28T00:32:47;22.37;;;9.07;;
7177;SDS011;3630;42.146;24.756;2023-02-28T00:35:14;20.03;;;10.07;;
7177;SDS011;3630;42.146;24.756;2023-02-28T00:37:42;14.30;;;10.07;;
7177;SDS011;3630;42.146;24.756;2023-02-28T00:40:09;16.43;;;10.70;;
7177;SDS011;3630;42.146;24.756;2023-02-28T00:42:37;19.50;;;10.33;;
7177;SDS011;3630;42.146;24.756;2023-02-28T00:45:06;15.00;;;9.37;;
7177;SDS011;3630;42.146;24.756;2023-02-28T00:47:34;19.53;;;10.87;;
7177;SDS011;3630;42.146;24.756;2023-02-28T00:50:01;14.50;;;10.20;;
7177;SDS011;3630;42.146;24.756;2023-02-28T00:52:29;16.47;;;9.10;;
7177;SDS011;3630;42.146;24.756;2023-02-28T00:54:55;15.13;;;9.53;;
7177;SDS011;3630;42.146;24.756;2023-02-28T00:57:22;13.83;;;9.87;;
7177;SDS011;3630;42.146;24.756;2023-02-28T00:59:49;14.40;;;9.93;;
7177;SDS011;3630;42.146;24.756;2023-02-28T01:02:20;16.27;;;10.07;;
7177;SDS011;3630;42.146;24.756;2023-02-28T01:04:47;17.07;;;9.70;;
7177;SDS011;3630;42.146;24.756;2023-02-28T01:07:14;16.30;;;10.17;;
7177;SDS011;3630;42.146;24.756;2023-02-28T01:09:41;19.13;;;10.43;;
7177;SDS011;3630;42.146;24.756;2023-02-28T01:12:08;13.87;;;10.27;;
7177;SDS011;3630;42.146;24.756;2023-02-28T01:14:35;17.77;;;10.80;;
7177;SDS011;3630;42.146;24.756;2023-02-28T01:17:02;15.63;;;10.30;;
7177;SDS011;3630;42.146;24.756;2023-02-28T01:19:30;18.17;;;10.70;;
7177;SDS011;3630;42.146;24.756;2023-02-28T01:21:57;14.23;;;9.57;;
7177;SDS011;3630;42.146;24.756;2023-02-28T01:24:27;14.97;;;10.03;;
7177;SDS011;3630;42.146;24.756;2023-02-28T01:26:54;16.47;;;8.93;;
7177;SDS011;3630;42.146;24.756;2023-02-28T01:29:21;18.20;;;9.20;;
7177;SDS011;3630;42.146;24.756;2023-02-28T01:31:48;11.00;;;8.43;;
7177;SDS011;3630;42.146;24.756;2023-02-28T01:34:14;14.63;;;8.70;;
7177;SDS011;3630;42.146;24.756;2023-02-28T01:36:42;12.83;;;8.43;;
7177;SDS011;3630;42.146;24.756;2023-02-28T01:39:09;15.70;;;8.83;;
7177;SDS011;3630;42.146;24.756;2023-02-28T01:41:37;13.80;;;8.87;;
7177;SDS011;3630;42.146;24.756;2023-02-28T01:44:05;16.80;;;9.30;;
7177;SDS011;3630;42.146;24.756;2023-02-28T01:46:33;15.03;;;9.20;;
7177;SDS011;3630;42.146;24.756;2023-02-28T01:49:04;13.27;;;8.67;;
7177;SDS011;3630;42.146;24.756;2023-02-28T01:51:35;11.30;;;8.53;;
7177;SDS011;3630;42.146;24.756;2023-02-28T01:54:07;18.03;;;9.93;;
7177;SDS011;3630;42.146;24.756;2023-02-28T01:56:38;14.50;;;9.33;;
7177;SDS011;3630;42.146;24.756;2023-02-28T01:59:09;16.47;;;9.03;;
7177;SDS011;3630;42.146;24.756;2023-02-28T02:01:40;16.10;;;8.80;;
7177;SDS011;3630;42.146;24.756;2023-02-28T02:04:07;12.70;;;9.03;;
7177;SDS011;3630;42.146;24.756;2023-02-28T02:06:36;15.27;;;9.73;;
7177;SDS011;3630;42.146;24.756;2023-02-28T02:09:06;14.73;;;8.80;;
7177;SDS011;3630;42.146;24.756;2023-02-28T02:11:33;14.00;;;9.77;;
7177;SDS011;3630;42.146;24.756;2023-02-28T02:14:14;21.40;;;8.83;;
7177;SDS011;3630;42.146;24.756;2023-02-28T02:16:54;15.10;;;9.00;;
7177;SDS011;3630;42.146;24.756;2023-02-28T02:22:56;22.03;;;12.03;;
7177;SDS011;3630;42.146;24.756;2023-02-28T02:25:36;19.33;;;11.80;;
7177;SDS011;3630;42.146;24.756;2023-02-28T02:28:17;20.77;;;11.43;;
7177;SDS011;3630;42.146;24.756;2023-02-28T02:31:26;22.33;;;11.83;;
7177;SDS011;3630;42.146;24.756;2023-02-28T02:34:20;21.40;;;11.20;;
7177;SDS011;3630;42.146;24.756;2023-02-28T02:36:54;21.73;;;11.67;;
7177;SDS011;3630;42.146;24.756;2023-02-28T02:39:31;18.27;;;11.37;;
7177;SDS011;3630;42.146;24.756;2023-02-28T02:42:09;20.33;;;11.90;;
7177;SDS011;3630;42.146;24.756;2023-02-28T02:44:42;16.90;;;11.43;;
7177;SDS011;3630;42.146;24.756;2023-02-28T02:47:14;16.70;;;12.23;;
7177;SDS011;3630;42.146;24.756;2023-02-28T02:49:45;19.33;;;11.83;;
7177;SDS011;3630;42.146;24.756;2023-02-28T02:52:16;16.87;;;11.10;;
7177;SDS011;3630;42.146;24.756;2023-02-28T02:54:46;18.47;;;12.37;;
7177;SDS011;3630;42.146;24.756;2023-02-28T02:57:20;21.40;;;12.20;;
7177;SDS011;3630;42.146;24.756;2023-02-28T02:59:50;20.80;;;12.27;;
7177;SDS011;3630;42.146;24.756;2023-02-28T03:02:20;21.53;;;11.83;;
7177;SDS011;3630;42.146;24.756;2023-02-28T03:04:50;19.10;;;11.03;;
7177;SDS011;3630;42.146;24.756;2023-02-28T03:07:20;23.47;;;12.47;;
7177;SDS011;3630;42.146;24.756;2023-02-28T03:09:50;20.53;;;13.40;;
7177;SDS011;3630;42.146;24.756;2023-02-28T03:12:18;17.40;;;12.93;;
7177;SDS011;3630;42.146;24.756;2023-02-28T03:14:50;18.57;;;13.03;;
7177;SDS011;3630;42.146;24.756;2023-02-28T03:17:31;21.30;;;14.47;;
7177;SDS011;3630;42.146;24.756;2023-02-28T03:20:17;20.63;;;13.23;;
7177;SDS011;3630;42.146;24.756;2023-02-28T03:23:01;17.23;;;12.30;;
7177;SDS011;3630;42.146;24.756;2023-02-28T03:25:38;20.90;;;12.37;;
7177;SDS011;3630;42.146;24.756;2023-02-28T03:28:17;20.00;;;13.47;;
7177;SDS011;3630;42.146;24.756;2023-02-28T03:30:53;23.67;;;13.33;;
7177;SDS011;3630;42.146;24.756;2023-02-28T03:33:26;23.53;;;13.90;;
7177;SDS011;3630;42.146;24.756;2023-02-28T03:35:59;20.33;;;14.83;;
7177;SDS011;3630;42.146;24.756;2023-02-28T03:38:29;20.53;;;14.73;;
7177;SDS011;3630;42.146;24.756;2023-02-28T03:41:05;20.80;;;13.63;;
7177;SDS011;3630;42.146;24.756;2023-02-28T03:43:38;18.90;;;13.37;;
7177;SDS011;3630;42.146;24.756;2023-02-28T03:46:09;21.77;;;14.07;;
7177;SDS011;3630;42.146;24.756;2023-02-28T03:48:40;26.40;;;15.03;;
7177;SDS011;3630;42.146;24.756;2023-02-28T03:51:12;18.27;;;13.27;;
7177;SDS011;3630;42.146;24.756;2023-02-28T03:53:44;19.57;;;13.87;;
7177;SDS011;3630;42.146;24.756;2023-02-28T03:56:16;21.90;;;14.20;;
7177;SDS011;3630;42.146;24.756;2023-02-28T03:58:47;20.30;;;15.17;;
7177;SDS011;3630;42.146;24.756;2023-02-28T04:01:19;21.87;;;14.60;;
7177;SDS011;3630;42.146;24.756;2023-02-28T04:03:50;23.27;;;15.10;;
7177;SDS011;3630;42.146;24.756;2023-02-28T04:06:19;23.65;;;17.17;;
7177;SDS011;3630;42.146;24.756;2023-02-28T04:08:48;22.13;;;15.63;;
7177;SDS011;3630;42.146;24.756;2023-02-28T04:11:17;23.67;;;15.17;;
7177;SDS011;3630;42.146;24.756;2023-02-28T04:13:47;24.20;;;16.00;;
7177;SDS011;3630;42.146;24.756;2023-02-28T04:16:14;20.33;;;15.57;;
7177;SDS011;3630;42.146;24.756;2023-02-28T04:18:41;20.20;;;15.60;;
7177;SDS011;3630;42.146;24.756;2023-02-28T04:21:09;22.47;;;16.47;;
7177;SDS011;3630;42.146;24.756;2023-02-28T04:23:38;18.73;;;13.67;;
7177;SDS011;3630;42.146;24.756;2023-02-28T04:26:05;21.43;;;14.63;;
7177;SDS011;3630;42.146;24.756;2023-02-28T04:28:32;19.50;;;14.00;;
7177;SDS011;3630;42.146;24.756;2023-02-28T04:30:59;18.93;;;14.07;;
7177;SDS011;3630;42.146;24.756;2023-02-28T04:33:28;24.00;;;14.70;;
7177;SDS011;3630;42.146;24.756;2023-02-28T04:35:58;25.97;;;15.37;;
7177;SDS011;3630;42.146;24.756;2023-02-28T04:38:26;23.13;;;13.87;;
7177;SDS011;3630;42.146;24.756;2023-02-28T04:40:54;18.73;;;13.47;;
7177;SDS011;3630;42.146;24.756;2023-02-28T04:43:23;18.83;;;13.33;;
7177;SDS011;3630;42.146;24.756;2023-02-28T04:45:50;20.97;;;14.80;;
7177;SDS011;3630;42.146;24.756;2023-02-28T04:48:17;19.40;;;14.37;;
7177;SDS011;3630;42.146;24.756;2023-02-28T04:50:43;21.00;;;13.53;;
7177;SDS011;3630;42.146;24.756;2023-02-28T04:53:10;23.80;;;15.53;;
7177;SDS011;3630;42.146;24.756;2023-02-28T04:55:37;21.77;;;14.20;;
7177;SDS011;3630;42.146;24.756;2023-02-28T04:58:06;18.10;;;13.40;;
7177;SDS011;3630;42.146;24.756;2023-02-28T05:00:33;21.43;;;14.77;;
7177;SDS011;3630;42.146;24.756;2023-02-28T05:03:00;21.37;;;15.80;;
7177;SDS011;3630;42.146;24.756;2023-02-28T05:05:26;22.13;;;17.42;;
7177;SDS011;3630;42.146;24.756;2023-02-28T05:07:53;24.17;;;15.47;;
7177;SDS011;3630;42.146;24.756;2023-02-28T05:10:20;19.33;;;14.07;;
7177;SDS011;3630;42.146;24.756;2023-02-28T05:12:47;18.23;;;15.13;;
7177;SDS011;3630;42.146;24.756;2023-02-28T05:15:16;21.10;;;14.60;;
7177;SDS011;3630;42.146;24.756;2023-02-28T05:17:43;20.27;;;13.53;;
7177;SDS011;3630;42.146;24.756;2023-02-28T05:20:12;20.67;;;14.27;;
7177;SDS011;3630;42.146;24.756;2023-02-28T05:22:39;20.52;;;15.55;;
7177;SDS011;3630;42.146;24.756;2023-02-28T05:25:08;19.23;;;15.53;;
7177;SDS011;3630;42.146;24.756;2023-02-28T05:27:37;20.60;;;13.87;;
7177;SDS011;3630;42.146;24.756;2023-02-28T05:30:04;19.23;;;13.87;;
7177;SDS011;3630;42.146;24.756;2023-02-28T05:32:36;23.00;;;15.93;;
7177;SDS011;3630;42.146;24.756;2023-02-28T05:35:03;27.07;;;15.37;;
7177;SDS011;3630;42.146;24.756;2023-02-28T05:37:32;23.80;;;14.37;;
7177;SDS011;3630;42.146;24.756;2023-02-28T05:39:59;19.20;;;13.63;;
7177;SDS011;3630;42.146;24.756;2023-02-28T05:42:26;23.17;;;13.33;;
7177;SDS011;3630;42.146;24.756;2023-02-28T05:44:53;19.17;;;15.07;;
7177;SDS011;3630;42.146;24.756;2023-02-28T05:47:19;20.70;;;15.00;;
7177;SDS011;3630;42.146;24.756;2023-02-28T05:49:48;24.17;;;14.37;;
7177;SDS011;3630;42.146;24.756;2023-02-28T05:52:14;18.97;;;14.93;;
7177;SDS011;3630;42.146;24.756;2023-02-28T05:54:41;18.97;;;13.77;;
7177;SDS011;3630;42.146;24.756;2023-02-28T05:57:08;19.67;;;13.87;;
7177;SDS011;3630;42.146;24.756;2023-02-28T05:59:35;19.93;;;13.47;;
7177;SDS011;3630;42.146;24.756;2023-02-28T06:02:04;19.60;;;13.40;;
7177;SDS011;3630;42.146;24.756;2023-02-28T06:04:31;19.67;;;13.57;;
7177;SDS011;3630;42.146;24.756;2023-02-28T06:07:00;19.67;;;13.47;;
7177;SDS011;3630;42.146;24.756;2023-02-28T06:09:26;16.63;;;13.63;;
7177;SDS011;3630;42.146;24.756;2023-02-28T06:11:54;17.73;;;13.33;;
7177;SDS011;3630;42.146;24.756;2023-02-28T06:14:20;21.17;;;14.30;;
7177;SDS011;3630;42.146;24.756;2023-02-28T06:16:47;17.77;;;13.40;;
7177;SDS011;3630;42.146;24.756;2023-02-28T06:19:14;19.47;;;14.30;;
7177;SDS011;3630;42.146;24.756;2023-02-28T06:21:41;21.20;;;14.80;;
7177;SDS011;3630;42.146;24.756;2023-02-28T06:24:09;23.40;;;14.60;;
7177;SDS011;3630;42.146;24.756;2023-02-28T06:26:36;19.37;;;13.23;;
7177;SDS011;3630;42.146;24.756;2023-02-28T06:29:03;20.10;;;15.00;;
7177;SDS011;3630;42.146;24.756;2023-02-28T06:31:30;23.90;;;14.80;;
7177;SDS011;3630;42.146;24.756;2023-02-28T06:33:57;21.80;;;14.17;;
7177;SDS011;3630;42.146;24.756;2023-02-28T06:36:24;20.27;;;15.40;;
7177;SDS011;3630;42.146;24.756;2023-02-28T06:38:51;22.97;;;15.27;;
7177;SDS011;3630;42.146;24.756;2023-02-28T06:41:22;24.40;;;15.70;;
7177;SDS011;3630;42.146;24.756;2023-02-28T06:43:49;22.10;;;15.57;;
7177;SDS011;3630;42.146;24.756;2023-02-28T06:46:16;20.47;;;15.07;;
7177;SDS011;3630;42.146;24.756;2023-02-28T06:48:43;24.10;;;14.13;;
7177;SDS011;3630;42.146;24.756;2023-02-28T06:51:11;19.63;;;14.33;;
7177;SDS011;3630;42.146;24.756;2023-02-28T06:53:40;19.90;;;13.97;;
7177;SDS011;3630;42.146;24.756;2023-02-28T06:56:08;22.40;;;14.57;;
7177;SDS011;3630;42.146;24.756;2023-02-28T06:58:37;19.70;;;13.83;;
7177;SDS011;3630;42.146;24.756;2023-02-28T07:01:05;19.83;;;15.20;;
7177;SDS011;3630;42.146;24.756;2023-02-28T07:03:34;20.73;;;15.97;;
7177;SDS011;3630;42.146;24.756;2023-02-28T07:06:01;25.47;;;16.40;;
7177;SDS011;3630;42.146;24.756;2023-02-28T07:08:29;24.20;;;15.43;;
7177;SDS011;3630;42.146;24.756;2023-02-28T07:10:56;25.43;;;16.00;;
7177;SDS011;3630;42.146;24.756;2023-02-28T07:13:24;22.60;;;14.83;;
7177;SDS011;3630;42.146;24.756;2023-02-28T07:15:56;26.03;;;17.27;;
7177;SDS011;3630;42.146;24.756;2023-02-28T07:18:24;24.87;;;15.60;;
7177;SDS011;3630;42.146;24.756;2023-02-28T07:20:51;24.73;;;17.23;;
7177;SDS011;3630;42.146;24.756;2023-02-28T07:23:18;26.67;;;16.40;;
7177;SDS011;3630;42.146;24.756;2023-02-28T07:25:46;23.77;;;17.40;;
7177;SDS011;3630;42.146;24.756;2023-02-28T07:28:12;21.97;;;17.00;;
7177;SDS011;3630;42.146;24.756;2023-02-28T07:30:40;20.30;;;15.83;;
7177;SDS011;3630;42.146;24.756;2023-02-28T07:33:08;21.03;;;16.47;;
7177;SDS011;3630;42.146;24.756;2023-02-28T07:35:35;24.63;;;17.40;;
7177;SDS011;3630;42.146;24.756;2023-02-28T07:38:02;25.73;;;19.47;;
7177;SDS011;3630;42.146;24.756;2023-02-28T07:40:29;26.60;;;17.83;;
7177;SDS011;3630;42.146;24.756;2023-02-28T07:42:56;27.77;;;19.33;;
7177;SDS011;3630;42.146;24.756;2023-02-28T07:45:24;23.07;;;17.27;;
7177;SDS011;3630;42.146;24.756;2023-02-28T07:47:51;25.03;;;19.20;;
7177;SDS011;3630;42.146;24.756;2023-02-28T07:50:19;27.37;;;18.17;;
7177;SDS011;3630;42.146;24.756;2023-02-28T07:52:46;25.97;;;18.63;;
7177;SDS011;3630;42.146;24.756;2023-02-28T07:55:13;24.07;;;18.07;;
7177;SDS011;3630;42.146;24.756;2023-02-28T07:57:41;30.42;;;20.70;;
7177;SDS011;3630;42.146;24.756;2023-02-28T08:00:09;25.73;;;17.93;;
7177;SDS011;3630;42.146;24.756;2023-02-28T08:02:37;29.83;;;19.23;;
7177;SDS011;3630;42.146;24.756;2023-02-28T08:05:05;27.33;;;18.53;;
7177;SDS011;3630;42.146;24.756;2023-02-28T08:07:34;26.83;;;18.57;;
7177;SDS011;3630;42.146;24.756;2023-02-28T08:10:01;36.77;;;21.77;;
7177;SDS011;3630;42.146;24.756;2023-02-28T08:12:27;31.27;;;20.40;;
7177;SDS011;3630;42.146;24.756;2023-02-28T08:14:54;30.63;;;20.87;;
7177;SDS011;3630;42.146;24.756;2023-02-28T08:17:21;32.87;;;20.20;;
7177;SDS011;3630;42.146;24.756;2023-02-28T08:19:48;28.57;;;21.27;;
7177;SDS011;3630;42.146;24.756;2023-02-28T08:22:15;28.40;;;19.23;;
7177;SDS011;3630;42.146;24.756;2023-02-28T08:24:43;28.50;;;19.27;;
7177;SDS011;3630;42.146;24.756;2023-02-28T08:27:10;33.40;;;19.87;;
7177;SDS011;3630;42.146;24.756;2023-02-28T08:29:38;31.63;;;20.80;;
7177;SDS011;3630;42.146;24.756;2023-02-28T08:32:05;33.27;;;20.60;;
7177;SDS011;3630;42.146;24.756;2023-02-28T08:34:32;25.67;;;19.87;;
7177;SDS011;3630;42.146;24.756;2023-02-28T08:36:59;32.47;;;20.03;;
7177;SDS011;3630;42.146;24.756;2023-02-28T08:39:26;30.90;;;20.60;;
7177;SDS011;3630;42.146;24.756;2023-02-28T08:41:54;30.30;;;22.73;;
7177;SDS011;3630;42.146;24.756;2023-02-28T08:44:21;33.83;;;20.50;;
7177;SDS011;3630;42.146;24.756;2023-02-28T08:46:48;30.80;;;20.83;;
7177;SDS011;3630;42.146;24.756;2023-02-28T08:49:15;35.83;;;23.37;;
7177;SDS011;3630;42.146;24.756;2023-02-28T08:51:41;29.48;;;23.40;;
7177;SDS011;3630;42.146;24.756;2023-02-28T08:54:08;31.80;;;22.20;;
7177;SDS011;3630;42.146;24.756;2023-02-28T08:56:37;30.50;;;21.67;;
7177;SDS011;3630;42.146;24.756;2023-02-28T08:59:06;34.90;;;20.53;;
7177;SDS011;3630;42.146;24.756;2023-02-28T09:01:35;32.30;;;22.23;;
7177;SDS011;3630;42.146;24.756;2023-02-28T09:04:02;27.30;;;20.50;;
7177;SDS011;3630;42.146;24.756;2023-02-28T09:06:29;29.80;;;21.23;;
7177;SDS011;3630;42.146;24.756;2023-02-28T09:08:56;29.93;;;19.87;;
7177;SDS011;3630;42.146;24.756;2023-02-28T09:11:24;28.93;;;21.53;;
7177;SDS011;3630;42.146;24.756;2023-02-28T09:13:51;27.83;;;20.80;;
7177;SDS011;3630;42.146;24.756;2023-02-28T09:16:21;29.07;;;21.70;;
7177;SDS011;3630;42.146;24.756;2023-02-28T09:18:48;30.13;;;21.93;;
7177;SDS011;3630;42.146;24.756;2023-02-28T09:21:16;29.53;;;22.50;;
7177;SDS011;3630;42.146;24.756;2023-02-28T09:23:44;29.53;;;21.03;;
7177;SDS011;3630;42.146;24.756;2023-02-28T09:26:16;30.10;;;20.10;;
7177;SDS011;3630;42.146;24.756;2023-02-28T09:28:44;28.13;;;20.37;;
7177;SDS011;3630;42.146;24.756;2023-02-28T09:31:11;22.67;;;19.87;;
7177;SDS011;3630;42.146;24.756;2023-02-28T09:33:41;28.10;;;20.63;;
7177;SDS011;3630;42.146;24.756;2023-02-28T09:36:08;27.77;;;20.20;;
7177;SDS011;3630;42.146;24.756;2023-02-28T09:38:35;30.13;;;21.23;;
7177;SDS011;3630;42.146;24.756;2023-02-28T09:41:02;31.60;;;20.80;;
7177;SDS011;3630;42.146;24.756;2023-02-28T09:43:37;29.63;;;22.03;;
7177;SDS011;3630;42.146;24.756;2023-02-28T09:46:08;31.97;;;21.53;;
7177;SDS011;3630;42.146;24.756;2023-02-28T09:48:47;33.47;;;21.53;;
7177;SDS011;3630;42.146;24.756;2023-02-28T09:51:18;30.20;;;23.17;;
7177;SDS011;3630;42.146;24.756;2023-02-28T09:53:56;30.47;;;22.67;;
7177;SDS011;3630;42.146;24.756;2023-02-28T09:56:24;25.27;;;20.67;;
7177;SDS011;3630;42.146;24.756;2023-02-28T09:58:54;29.67;;;20.23;;
7177;SDS011;3630;42.146;24.756;2023-02-28T10:01:27;26.17;;;20.93;;
7177;SDS011;3630;42.146;24.756;2023-02-28T10:04:03;27.20;;;21.77;;
7177;SDS011;3630;42.146;24.756;2023-02-28T10:06:38;32.10;;;22.67;;
7177;SDS011;3630;42.146;24.756;2023-02-28T10:09:11;28.47;;;22.37;;
7177;SDS011;3630;42.146;24.756;2023-02-28T10:11:45;31.63;;;22.97;;
7177;SDS011;3630;42.146;24.756;2023-02-28T10:14:14;29.83;;;22.30;;
7177;SDS011;3630;42.146;24.756;2023-02-28T10:16:45;31.73;;;22.70;;
7177;SDS011;3630;42.146;24.756;2023-02-28T10:19:20;34.90;;;22.73;;
7177;SDS011;3630;42.146;24.756;2023-02-28T10:21:54;28.90;;;21.50;;
7177;SDS011;3630;42.146;24.756;2023-02-28T10:24:26;33.97;;;23.47;;
7177;SDS011;3630;42.146;24.756;2023-02-28T10:26:58;33.80;;;24.83;;
7177;SDS011;3630;42.146;24.756;2023-02-28T10:29:27;33.80;;;24.63;;
7177;SDS011;3630;42.146;24.756;2023-02-28T10:31:58;36.77;;;25.30;;
7177;SDS011;3630;42.146;24.756;2023-02-28T10:34:29;39.93;;;26.07;;
7177;SDS011;3630;42.146;24.756;2023-02-28T10:36:56;33.87;;;24.60;;
7177;SDS011;3630;42.146;24.756;2023-02-28T10:39:39;35.27;;;23.33;;
7177;SDS011;3630;42.146;24.756;2023-02-28T10:42:21;35.97;;;24.43;;
7177;SDS011;3630;42.146;24.756;2023-02-28T10:47:37;37.00;;;25.77;;
7177;SDS011;3630;42.146;24.756;2023-02-28T10:53:14;33.07;;;24.23;;
7177;SDS011;3630;42.146;24.756;2023-02-28T10:55:55;38.10;;;26.00;;
7177;SDS011;3630;42.146;24.756;2023-02-28T10:58:24;36.27;;;25.30;;
7177;SDS011;3630;42.146;24.756;2023-02-28T11:00:52;35.13;;;25.97;;
7177;SDS011;3630;42.146;24.756;2023-02-28T11:03:24;41.57;;;27.07;;
7177;SDS011;3630;42.146;24.756;2023-02-28T11:06:03;34.17;;;25.27;;
7177;SDS011;3630;42.146;24.756;2023-02-28T11:08:33;34.83;;;24.73;;
7177;SDS011;3630;42.146;24.756;2023-02-28T11:11:05;38.50;;;26.37;;
7177;SDS011;3630;42.146;24.756;2023-02-28T11:13:33;40.27;;;24.07;;
7177;SDS011;3630;42.146;24.756;2023-02-28T11:16:03;40.93;;;24.57;;
7177;SDS011;3630;42.146;24.756;2023-02-28T11:18:34;38.70;;;24.73;;
7177;SDS011;3630;42.146;24.756;2023-02-28T11:21:07;34.93;;;23.80;;
7177;SDS011;3630;42.146;24.756;2023-02-28T11:23:36;34.73;;;22.90;;
7177;SDS011;3630;42.146;24.756;2023-02-28T11:26:06;40.27;;;26.00;;
7177;SDS011;3630;42.146;24.756;2023-02-28T11:28:36;33.10;;;23.30;;
7177;SDS011;3630;42.146;24.756;2023-02-28T11:31:06;33.37;;;23.97;;
7177;SDS011;3630;42.146;24.756;2023-02-28T11:33:44;35.15;;;25.83;;
7177;SDS011;3630;42.146;24.756;2023-02-28T11:36:16;32.30;;;26.50;;
7177;SDS011;3630;42.146;24.756;2023-02-28T11:38:45;33.03;;;27.30;;
7177;SDS011;3630;42.146;24.756;2023-02-28T11:44:23;36.53;;;24.97;;
7177;SDS011;3630;42.146;24.756;2023-02-28T11:47:03;34.87;;;27.23;;
7177;SDS011;3630;42.146;24.756;2023-02-28T11:49:40;36.43;;;26.57;;
7177;SDS011;3630;42.146;24.756;2023-02-28T11:52:19;37.27;;;27.50;;
7177;SDS011;3630;42.146;24.756;2023-02-28T11:54:59;36.97;;;27.13;;
7177;SDS011;3630;42.146;24.756;2023-02-28T11:57:35;37.80;;;26.87;;
7177;SDS011;3630;42.146;24.756;2023-02-28T12:00:19;35.50;;;24.80;;
7177;SDS011;3630;42.146;24.756;2023-02-28T12:03:00;41.20;;;28.43;;
7177;SDS011;3630;42.146;24.756;2023-02-28T12:05:38;43.13;;;28.40;;
7177;SDS011;3630;42.146;24.756;2023-02-28T12:08:18;38.70;;;29.23;;
7177;SDS011;3630;42.146;24.756;2023-02-28T12:11:00;45.77;;;30.37;;
7177;SDS011;3630;42.146;24.756;2023-02-28T12:13:35;40.03;;;29.03;;
7177;SDS011;3630;42.146;24.756;2023-02-28T12:16:13;38.47;;;28.37;;
7177;SDS011;3630;42.146;24.756;2023-02-28T12:19:03;39.90;;;30.70;;
7177;SDS011;3630;42.146;24.756;2023-02-28T12:21:44;39.40;;;29.73;;
7177;SDS011;3630;42.146;24.756;2023-02-28T12:24:37;43.90;;;30.03;;
7177;SDS011;3630;42.146;24.756;2023-02-28T12:27:12;41.37;;;29.30;;
7177;SDS011;3630;42.146;24.756;2023-02-28T12:29:43;42.10;;;31.73;;
7177;SDS011;3630;42.146;24.756;2023-02-28T12:32:16;44.23;;;31.60;;
7177;SDS011;3630;42.146;24.756;2023-02-28T12:34:48;43.57;;;30.57;;
7177;SDS011;3630;42.146;24.756;2023-02-28T12:37:18;43.43;;;30.50;;
7177;SDS011;3630;42.146;24.756;2023-02-28T12:39:54;42.50;;;29.27;;
7177;SDS011;3630;42.146;24.756;2023-02-28T12:42:26;49.27;;;32.67;;
7177;SDS011;3630;42.146;24.756;2023-02-28T12:44:56;46.03;;;31.70;;
7177;SDS011;3630;42.146;24.756;2023-02-28T12:47:25;48.23;;;32.03;;
7177;SDS011;3630;42.146;24.756;2023-02-28T12:49:53;46.67;;;31.17;;
7177;SDS011;3630;42.146;24.756;2023-02-28T12:52:27;44.53;;;32.13;;
7177;SDS011;3630;42.146;24.756;2023-02-28T12:55:05;49.07;;;31.23;;
7177;SDS011;3630;42.146;24.756;2023-02-28T12:57:39;45.70;;;30.97;;
7177;SDS011;3630;42.146;24.756;2023-02-28T13:00:11;47.70;;;32.17;;
7177;SDS011;3630;42.146;24.756;2023-02-28T13:02:54;48.93;;;34.43;;
7177;SDS011;3630;42.146;24.756;2023-02-28T13:05:45;36.67;;;27.60;;
7177;SDS011;3630;42.146;24.756;2023-02-28T13:11:30;37.60;;;26.40;;
7177;SDS011;3630;42.146;24.756;2023-02-28T13:14:00;41.97;;;30.83;;
7177;SDS011;3630;42.146;24.756;2023-02-28T13:16:32;41.63;;;31.20;;
7177;SDS011;3630;42.146;24.756;2023-02-28T13:19:17;45.67;;;30.97;;
7177;SDS011;3630;42.146;24.756;2023-02-28T13:21:48;41.57;;;28.33;;
7177;SDS011;3630;42.146;24.756;2023-02-28T13:33:19;38.27;;;28.60;;
7177;SDS011;3630;42.146;24.756;2023-02-28T13:35:50;37.43;;;26.87;;
7177;SDS011;3630;42.146;24.756;2023-02-28T13:38:34;39.50;;;27.97;;
7177;SDS011;3630;42.146;24.756;2023-02-28T13:44:10;42.50;;;29.03;;
7177;SDS011;3630;42.146;24.756;2023-02-28T13:49:34;39.20;;;29.30;;
7177;SDS011;3630;42.146;24.756;2023-02-28T13:52:02;40.77;;;28.67;;
7177;SDS011;3630;42.146;24.756;2023-02-28T13:54:40;41.33;;;30.33;;
7177;SDS011;3630;42.146;24.756;2023-02-28T13:57:20;48.83;;;33.93;;
7177;SDS011;3630;42.146;24.756;2023-02-28T13:59:59;44.40;;;30.70;;
7177;SDS011;3630;42.146;24.756;2023-02-28T14:02:57;43.40;;;31.10;;
7177;SDS011;3630;42.146;24.756;2023-02-28T14:05:41;37.83;;;29.70;;
7177;SDS011;3630;42.146;24.756;2023-02-28T14:08:12;45.50;;;31.47;;
7177;SDS011;3630;42.146;24.756;2023-02-28T14:10:43;43.00;;;28.57;;
7177;SDS011;3630;42.146;24.756;2023-02-28T14:13:13;39.60;;;27.97;;
7177;SDS011;3630;42.146;24.756;2023-02-28T14:15:57;37.77;;;28.97;;
7177;SDS011;3630;42.146;24.756;2023-02-28T14:18:28;36.80;;;26.50;;
7177;SDS011;3630;42.146;24.756;2023-02-28T14:20:58;36.33;;;25.67;;
7177;SDS011;3630;42.146;24.756;2023-02-28T14:26:55;33.10;;;25.23;;
7177;SDS011;3630;42.146;24.756;2023-02-28T14:32:35;33.37;;;26.77;;
7177;SDS011;3630;42.146;24.756;2023-02-28T14:35:14;30.40;;;26.03;;
7177;SDS011;3630;42.146;24.756;2023-02-28T14:37:52;36.07;;;27.23;;
7177;SDS011;3630;42.146;24.756;2023-02-28T14:40:21;30.80;;;24.83;;
7177;SDS011;3630;42.146;24.756;2023-02-28T14:42:54;30.27;;;25.23;;
7177;SDS011;3630;42.146;24.756;2023-02-28T14:45:22;30.93;;;27.00;;
7177;SDS011;3630;42.146;24.756;2023-02-28T14:47:51;31.83;;;26.83;;
7177;SDS011;3630;42.146;24.756;2023-02-28T14:50:18;34.80;;;28.27;;
7177;SDS011;3630;42.146;24.756;2023-02-28T14:52:47;38.03;;;31.50;;
7177;SDS011;3630;42.146;24.756;2023-02-28T14:55:18;36.77;;;29.93;;
7177;SDS011;3630;42.146;24.756;2023-02-28T14:57:53;36.67;;;29.97;;
7177;SDS011;3630;42.146;24.756;2023-02-28T15:00:22;32.60;;;28.67;;
7177;SDS011;3630;42.146;24.756;2023-02-28T15:02:52;38.83;;;31.13;;
7177;SDS011;3630;42.146;24.756;2023-02-28T15:05:24;34.63;;;28.57;;
7177;SDS011;3630;42.146;24.756;2023-02-28T15:08:04;30.23;;;25.40;;
7177;SDS011;3630;42.146;24.756;2023-02-28T15:10:36;33.30;;;25.57;;
7177;SDS011;3630;42.146;24.756;2023-02-28T15:13:05;32.60;;;26.57;;
7177;SDS011;3630;42.146;24.756;2023-02-28T15:15:43;34.03;;;26.93;;
7177;SDS011;3630;42.146;24.756;2023-02-28T15:18:16;31.63;;;25.40;;
7177;SDS011;3630;42.146;24.756;2023-02-28T15:20:50;35.13;;;27.47;;
7177;SDS011;3630;42.146;24.756;2023-02-28T15:23:18;36.43;;;25.17;;
7177;SDS011;3630;42.146;24.756;2023-02-28T15:25:47;29.73;;;23.63;;
7177;SDS011;3630;42.146;24.756;2023-02-28T15:28:17;29.27;;;25.20;;
7177;SDS011;3630;42.146;24.756;2023-02-28T15:30:51;38.57;;;25.60;;
7177;SDS011;3630;42.146;24.756;2023-02-28T15:33:24;29.93;;;23.27;;